sensor_id;sensor_type;location;lat;lon;timestamp;pressure;altitude;pressure_sealevel;temperature;humidity
50632;BME280;49583;45.590;-122.498;2023-02-21T00:00:48;101654.60;;;10.40;66.79
50632;BME280;49583;45.590;-122.498;2023-02-21T00:03:18;101653.31;;;10.39;66.89
50632;BME280;49583;45.590;-122.498;2023-02-21T00:05:49;101643.41;;;10.37;66.83
50632;BME280;49583;45.590;-122.498;2023-02-21T00:08:19;101621.38;;;10.38;67.19
50632;BME280;49583;45.590;-122.498;2023-02-21T00:10:48;101593.35;;;10.35;66.96
50632;BME280;49583;45.590;-122.498;2023-02-21T00:13:18;101580.92;;;10.34;67.12
50632;BME280;49583;45.590;-122.498;2023-02-21T00:15:47;101589.37;;;10.33;67.26
50632;BME280;49583;45.590;-122.498;2023-02-21T00:18:16;101598.45;;;10.34;67.12
50632;BME280;49583;45.590;-122.498;2023-02-21T00:20:46;101595.48;;;10.32;67.19
50632;BME280;49583;45.590;-122.498;2023-02-21T00:23:16;101597.77;;;10.30;67.25
50632;BME280;49583;45.590;-122.498;2023-02-21T00:25:47;101603.95;;;10.28;67.24
50632;BME280;49583;45.590;-122.498;2023-02-21T00:28:18;101609.36;;;10.26;67.47
50632;BME280;49583;45.590;-122.498;2023-02-21T00:30:49;101598.93;;;10.27;67.49
50632;BME280;49583;45.590;-122.498;2023-02-21T00:33:21;101598.54;;;10.27;67.51
50632;BME280;49583;45.590;-122.498;2023-02-21T00:35:50;101591.08;;;10.28;67.38
50632;BME280;49583;45.590;-122.498;2023-02-21T00:38:20;101590.52;;;10.28;67.38
50632;BME280;49583;45.590;-122.498;2023-02-21T00:40:51;101611.52;;;10.27;67.67
50632;BME280;49583;45.590;-122.498;2023-02-21T00:43:21;101624.36;;;10.28;67.54
50632;BME280;49583;45.590;-122.498;2023-02-21T00:45:56;101616.73;;;10.27;67.54
50632;BME280;49583;45.590;-122.498;2023-02-21T00:48:26;101594.94;;;10.26;67.74
50632;BME280;49583;45.590;-122.498;2023-02-21T00:50:56;101579.09;;;10.22;67.78
50632;BME280;49583;45.590;-122.498;2023-02-21T00:53:27;101573.02;;;10.21;67.79
50632;BME280;49583;45.590;-122.498;2023-02-21T00:55:57;101567.78;;;10.20;67.73
50632;BME280;49583;45.590;-122.498;2023-02-21T00:58:26;101570.79;;;10.19;68.05
50632;BME280;49583;45.590;-122.498;2023-02-21T01:00:55;101557.48;;;10.17;67.97
50632;BME280;49583;45.590;-122.498;2023-02-21T01:03:27;101545.13;;;10.16;68.04
50632;BME280;49583;45.590;-122.498;2023-02-21T01:05:56;101537.52;;;10.15;67.71
50632;BME280;49583;45.590;-122.498;2023-02-21T01:08:27;101525.14;;;10.14;67.85
50632;BME280;49583;45.590;-122.498;2023-02-21T01:10:59;101505.33;;;10.12;67.84
50632;BME280;49583;45.590;-122.498;2023-02-21T01:13:30;101499.70;;;10.10;67.98
50632;BME280;49583;45.590;-122.498;2023-02-21T01:16:01;101507.53;;;10.08;68.16
50632;BME280;49583;45.590;-122.498;2023-02-21T01:18:33;101516.94;;;10.09;68.41
50632;BME280;49583;45.590;-122.498;2023-02-21T01:21:03;101519.17;;;10.12;68.49
50632;BME280;49583;45.590;-122.498;2023-02-21T01:23:35;101525.66;;;10.18;68.73
50632;BME280;49583;45.590;-122.498;2023-02-21T01:26:07;101509.06;;;10.28;68.55
50632;BME280;49583;45.590;-122.498;2023-02-21T01:28:39;101517.85;;;10.44;69.10
50632;BME280;49583;45.590;-122.498;2023-02-21T01:31:09;101514.77;;;10.64;68.99
50632;BME280;49583;45.590;-122.498;2023-02-21T01:33:41;101519.69;;;10.83;68.92
50632;BME280;49583;45.590;-122.498;2023-02-21T01:36:13;101501.80;;;11.04;68.84
50632;BME280;49583;45.590;-122.498;2023-02-21T01:38:42;101491.41;;;11.19;68.22
50632;BME280;49583;45.590;-122.498;2023-02-21T01:41:12;101494.52;;;11.34;68.06
50632;BME280;49583;45.590;-122.498;2023-02-21T01:44:02;101497.65;;;11.45;67.60
50632;BME280;49583;45.590;-122.498;2023-02-21T01:46:32;101493.52;;;11.51;66.65
50632;BME280;49583;45.590;-122.498;2023-02-21T01:49:05;101492.02;;;11.48;66.12
50632;BME280;49583;45.590;-122.498;2023-02-21T01:51:39;101473.04;;;11.42;65.76
50632;BME280;49583;45.590;-122.498;2023-02-21T01:54:10;101468.34;;;11.38;65.66
50632;BME280;49583;45.590;-122.498;2023-02-21T01:56:41;101458.64;;;11.31;65.41
50632;BME280;49583;45.590;-122.498;2023-02-21T01:59:13;101446.64;;;11.23;65.14
50632;BME280;49583;45.590;-122.498;2023-02-21T02:01:49;101431.96;;;11.14;64.99
50632;BME280;49583;45.590;-122.498;2023-02-21T02:04:20;101415.29;;;11.02;64.61
50632;BME280;49583;45.590;-122.498;2023-02-21T02:06:51;101413.58;;;10.92;64.87
50632;BME280;49583;45.590;-122.498;2023-02-21T02:09:22;101417.10;;;10.82;64.70
50632;BME280;49583;45.590;-122.498;2023-02-21T02:12:06;101415.25;;;10.73;64.80
50632;BME280;49583;45.590;-122.498;2023-02-21T02:17:26;101385.55;;;10.58;65.02
50632;BME280;49583;45.590;-122.498;2023-02-21T02:20:21;101387.08;;;10.49;64.79
50632;BME280;49583;45.590;-122.498;2023-02-21T02:23:10;101384.52;;;10.40;65.05
50632;BME280;49583;45.590;-122.498;2023-02-21T02:25:45;101394.55;;;10.32;65.15
50632;BME280;49583;45.590;-122.498;2023-02-21T02:28:36;101394.62;;;10.27;65.33
50632;BME280;49583;45.590;-122.498;2023-02-21T02:31:27;101374.96;;;10.19;65.20
50632;BME280;49583;45.590;-122.498;2023-02-21T02:36:54;101348.11;;;10.05;65.60
50632;BME280;49583;45.590;-122.498;2023-02-21T02:39:21;101358.09;;;10.00;65.96
50632;BME280;49583;45.590;-122.498;2023-02-21T02:41:46;101359.44;;;9.94;65.76
50632;BME280;49583;45.590;-122.498;2023-02-21T02:44:05;101350.30;;;9.92;65.84
50632;BME280;49583;45.590;-122.498;2023-02-21T02:46:27;101354.20;;;9.89;66.11
50632;BME280;49583;45.590;-122.498;2023-02-21T02:48:45;101350.46;;;9.88;66.41
50632;BME280;49583;45.590;-122.498;2023-02-21T02:51:05;101335.16;;;9.88;66.30
50632;BME280;49583;45.590;-122.498;2023-02-21T02:53:24;101329.80;;;9.87;66.19
50632;BME280;49583;45.590;-122.498;2023-02-21T02:55:44;101326.48;;;9.86;66.24
50632;BME280;49583;45.590;-122.498;2023-02-21T02:58:02;101300.70;;;9.84;66.25
50632;BME280;49583;45.590;-122.498;2023-02-21T03:00:17;101295.38;;;9.83;66.47
50632;BME280;49583;45.590;-122.498;2023-02-21T03:02:42;101289.14;;;9.82;66.46
50632;BME280;49583;45.590;-122.498;2023-02-21T03:05:09;101274.69;;;9.75;66.60
50632;BME280;49583;45.590;-122.498;2023-02-21T03:07:35;101258.67;;;9.69;66.70
50632;BME280;49583;45.590;-122.498;2023-02-21T03:10:00;101253.07;;;9.64;66.77
50632;BME280;49583;45.590;-122.498;2023-02-21T03:12:20;101257.98;;;9.61;66.99
50632;BME280;49583;45.590;-122.498;2023-02-21T03:14:40;101266.84;;;9.60;67.30
50632;BME280;49583;45.590;-122.498;2023-02-21T03:17:01;101276.35;;;9.59;67.36
50632;BME280;49583;45.590;-122.498;2023-02-21T03:19:19;101275.52;;;9.58;67.31
50632;BME280;49583;45.590;-122.498;2023-02-21T03:21:36;101266.80;;;9.58;67.34
50632;BME280;49583;45.590;-122.498;2023-02-21T03:23:53;101243.10;;;9.60;67.48
50632;BME280;49583;45.590;-122.498;2023-02-21T03:26:11;101245.00;;;9.62;67.34
50632;BME280;49583;45.590;-122.498;2023-02-21T03:28:30;101248.12;;;9.58;67.49
50632;BME280;49583;45.590;-122.498;2023-02-21T03:30:46;101250.11;;;9.55;67.57
50632;BME280;49583;45.590;-122.498;2023-02-21T03:33:01;101246.70;;;9.54;67.64
50632;BME280;49583;45.590;-122.498;2023-02-21T03:35:16;101243.67;;;9.52;67.76
50632;BME280;49583;45.590;-122.498;2023-02-21T03:37:34;101245.31;;;9.49;67.85
50632;BME280;49583;45.590;-122.498;2023-02-21T03:39:47;101252.77;;;9.47;67.78
50632;BME280;49583;45.590;-122.498;2023-02-21T03:42:01;101250.84;;;9.45;67.88
50632;BME280;49583;45.590;-122.498;2023-02-21T03:44:15;101241.16;;;9.44;68.23
50632;BME280;49583;45.590;-122.498;2023-02-21T03:46:28;101227.85;;;9.44;68.14
50632;BME280;49583;45.590;-122.498;2023-02-21T03:48:41;101221.27;;;9.43;67.88
50632;BME280;49583;45.590;-122.498;2023-02-21T03:51:00;101230.23;;;9.41;68.15
50632;BME280;49583;45.590;-122.498;2023-02-21T03:53:16;101222.29;;;9.37;68.09
50632;BME280;49583;45.590;-122.498;2023-02-21T03:55:29;101216.33;;;9.36;68.06
50632;BME280;49583;45.590;-122.498;2023-02-21T03:57:44;101207.56;;;9.33;68.20
50632;BME280;49583;45.590;-122.498;2023-02-21T03:59:57;101215.23;;;9.32;68.49
50632;BME280;49583;45.590;-122.498;2023-02-21T04:02:12;101204.71;;;9.30;68.50
50632;BME280;49583;45.590;-122.498;2023-02-21T04:04:25;101187.86;;;9.28;68.75
50632;BME280;49583;45.590;-122.498;2023-02-21T04:06:47;101181.90;;;9.25;68.91
50632;BME280;49583;45.590;-122.498;2023-02-21T04:09:00;101180.62;;;9.22;68.72
50632;BME280;49583;45.590;-122.498;2023-02-21T04:11:13;101172.52;;;9.20;68.82
50632;BME280;49583;45.590;-122.498;2023-02-21T04:13:27;101166.64;;;9.17;69.16
50632;BME280;49583;45.590;-122.498;2023-02-21T04:15:41;101155.05;;;9.14;69.13
50632;BME280;49583;45.590;-122.498;2023-02-21T04:17:54;101138.38;;;9.12;69.58
50632;BME280;49583;45.590;-122.498;2023-02-21T04:20:12;101135.09;;;9.08;69.87
50632;BME280;49583;45.590;-122.498;2023-02-21T04:22:32;101131.48;;;9.03;69.85
50632;BME280;49583;45.590;-122.498;2023-02-21T04:24:45;101136.87;;;9.01;69.89
50632;BME280;49583;45.590;-122.498;2023-02-21T04:26:59;101142.59;;;9.00;69.74
50632;BME280;49583;45.590;-122.498;2023-02-21T04:29:18;101137.78;;;8.98;70.57
50632;BME280;49583;45.590;-122.498;2023-02-21T04:31:33;101133.49;;;8.96;70.39
50632;BME280;49583;45.590;-122.498;2023-02-21T04:33:50;101131.63;;;8.94;70.44
50632;BME280;49583;45.590;-122.498;2023-02-21T04:36:20;101135.27;;;8.91;70.96
50632;BME280;49583;45.590;-122.498;2023-02-21T04:38:33;101123.71;;;8.86;71.23
50632;BME280;49583;45.590;-122.498;2023-02-21T04:40:47;101103.54;;;8.83;70.90
50632;BME280;49583;45.590;-122.498;2023-02-21T04:43:00;101096.58;;;8.82;70.99
50632;BME280;49583;45.590;-122.498;2023-02-21T04:45:13;101089.21;;;8.81;71.17
50632;BME280;49583;45.590;-122.498;2023-02-21T04:47:26;101087.20;;;8.79;71.62
50632;BME280;49583;45.590;-122.498;2023-02-21T04:49:39;101087.52;;;8.79;71.26
50632;BME280;49583;45.590;-122.498;2023-02-21T04:51:53;101087.62;;;8.78;71.30
50632;BME280;49583;45.590;-122.498;2023-02-21T04:54:06;101089.73;;;8.78;71.43
50632;BME280;49583;45.590;-122.498;2023-02-21T04:56:23;101080.19;;;8.78;71.51
50632;BME280;49583;45.590;-122.498;2023-02-21T04:58:37;101086.55;;;8.79;71.69
50632;BME280;49583;45.590;-122.498;2023-02-21T05:00:55;101077.48;;;8.78;71.89
50632;BME280;49583;45.590;-122.498;2023-02-21T05:03:11;101072.61;;;8.79;71.67
50632;BME280;49583;45.590;-122.498;2023-02-21T05:05:23;101069.55;;;8.79;71.80
50632;BME280;49583;45.590;-122.498;2023-02-21T05:07:36;101069.55;;;8.79;71.80
50632;BME280;49583;45.590;-122.498;2023-02-21T05:09:49;101073.16;;;8.79;72.04
50632;BME280;49583;45.590;-122.498;2023-02-21T05:12:03;101075.15;;;8.78;72.18
50632;BME280;49583;45.590;-122.498;2023-02-21T05:14:20;101074.54;;;8.79;72.20
50632;BME280;49583;45.590;-122.498;2023-02-21T05:16:33;101069.82;;;8.78;72.32
50632;BME280;49583;45.590;-122.498;2023-02-21T05:18:49;101060.10;;;8.76;72.41
50632;BME280;49583;45.590;-122.498;2023-02-21T05:21:05;101049.01;;;8.73;72.92
50632;BME280;49583;45.590;-122.498;2023-02-21T05:23:20;101038.93;;;8.71;72.92
50632;BME280;49583;45.590;-122.498;2023-02-21T05:25:44;101041.33;;;8.69;73.38
50632;BME280;49583;45.590;-122.498;2023-02-21T05:27:58;101036.60;;;8.67;73.17
50632;BME280;49583;45.590;-122.498;2023-02-21T05:30:13;101029.15;;;8.65;73.45
50632;BME280;49583;45.590;-122.498;2023-02-21T05:32:27;101019.78;;;8.63;74.28
50632;BME280;49583;45.590;-122.498;2023-02-21T05:34:40;101002.41;;;8.60;73.82
50632;BME280;49583;45.590;-122.498;2023-02-21T05:36:58;101005.46;;;8.57;74.03
50632;BME280;49583;45.590;-122.498;2023-02-21T05:39:12;100998.38;;;8.56;74.05
50632;BME280;49583;45.590;-122.498;2023-02-21T05:41:26;100984.84;;;8.54;74.60
50632;BME280;49583;45.590;-122.498;2023-02-21T05:43:40;100965.45;;;8.53;74.60
50632;BME280;49583;45.590;-122.498;2023-02-21T05:45:54;100953.26;;;8.52;74.68
50632;BME280;49583;45.590;-122.498;2023-02-21T05:48:07;100941.25;;;8.52;74.84
50632;BME280;49583;45.590;-122.498;2023-02-21T05:50:20;100956.23;;;8.53;74.81
50632;BME280;49583;45.590;-122.498;2023-02-21T05:52:33;100952.00;;;8.54;74.60
50632;BME280;49583;45.590;-122.498;2023-02-21T05:54:46;100948.20;;;8.54;74.65
50632;BME280;49583;45.590;-122.498;2023-02-21T05:56:59;100951.52;;;8.56;75.02
50632;BME280;49583;45.590;-122.498;2023-02-21T05:59:12;100940.46;;;8.57;74.71
50632;BME280;49583;45.590;-122.498;2023-02-21T06:01:25;100943.39;;;8.57;75.05
50632;BME280;49583;45.590;-122.498;2023-02-21T06:03:38;100928.55;;;8.59;74.69
50632;BME280;49583;45.590;-122.498;2023-02-21T06:05:50;100927.63;;;8.59;75.23
50632;BME280;49583;45.590;-122.498;2023-02-21T06:08:03;100911.45;;;8.58;75.16
50632;BME280;49583;45.590;-122.498;2023-02-21T06:10:20;100904.92;;;8.59;75.13
50632;BME280;49583;45.590;-122.498;2023-02-21T06:12:33;100904.38;;;8.59;74.99
50632;BME280;49583;45.590;-122.498;2023-02-21T06:14:46;100906.64;;;8.60;74.95
50632;BME280;49583;45.590;-122.498;2023-02-21T06:16:59;100896.99;;;8.61;75.16
50632;BME280;49583;45.590;-122.498;2023-02-21T06:19:13;100891.31;;;8.61;75.46
50632;BME280;49583;45.590;-122.498;2023-02-21T06:21:26;100888.12;;;8.61;75.33
50632;BME280;49583;45.590;-122.498;2023-02-21T06:23:39;100868.81;;;8.62;75.49
50632;BME280;49583;45.590;-122.498;2023-02-21T06:25:53;100871.02;;;8.63;75.14
50632;BME280;49583;45.590;-122.498;2023-02-21T06:28:07;100870.98;;;8.64;75.18
50632;BME280;49583;45.590;-122.498;2023-02-21T06:30:20;100852.88;;;8.63;75.18
50632;BME280;49583;45.590;-122.498;2023-02-21T06:32:33;100844.02;;;8.62;75.08
50632;BME280;49583;45.590;-122.498;2023-02-21T06:34:46;100834.06;;;8.63;75.01
50632;BME280;49583;45.590;-122.498;2023-02-21T06:37:00;100827.64;;;8.62;75.36
50632;BME280;49583;45.590;-122.498;2023-02-21T06:39:14;100828.58;;;8.62;75.22
50632;BME280;49583;45.590;-122.498;2023-02-21T06:41:28;100832.08;;;8.62;75.53
50632;BME280;49583;45.590;-122.498;2023-02-21T06:43:41;100830.73;;;8.61;75.54
50632;BME280;49583;45.590;-122.498;2023-02-21T06:45:55;100817.15;;;8.61;75.15
50632;BME280;49583;45.590;-122.498;2023-02-21T06:48:12;100798.41;;;8.60;75.47
50632;BME280;49583;45.590;-122.498;2023-02-21T06:50:25;100793.59;;;8.61;75.54
50632;BME280;49583;45.590;-122.498;2023-02-21T06:52:39;100793.60;;;8.61;75.37
50632;BME280;49583;45.590;-122.498;2023-02-21T06:54:53;100804.69;;;8.61;75.73
50632;BME280;49583;45.590;-122.498;2023-02-21T06:57:07;100792.13;;;8.62;75.45
50632;BME280;49583;45.590;-122.498;2023-02-21T06:59:20;100783.05;;;8.63;75.71
50632;BME280;49583;45.590;-122.498;2023-02-21T07:01:33;100783.70;;;8.63;75.49
50632;BME280;49583;45.590;-122.498;2023-02-21T07:03:47;100786.67;;;8.64;75.49
50632;BME280;49583;45.590;-122.498;2023-02-21T07:06:02;100779.09;;;8.64;75.40
50632;BME280;49583;45.590;-122.498;2023-02-21T07:08:15;100773.33;;;8.63;75.62
50632;BME280;49583;45.590;-122.498;2023-02-21T07:10:30;100763.09;;;8.63;75.91
50632;BME280;49583;45.590;-122.498;2023-02-21T07:12:43;100747.66;;;8.63;75.70
50632;BME280;49583;45.590;-122.498;2023-02-21T07:14:58;100744.68;;;8.63;75.77
50632;BME280;49583;45.590;-122.498;2023-02-21T07:17:11;100741.64;;;8.63;75.62
50632;BME280;49583;45.590;-122.498;2023-02-21T07:19:24;100748.63;;;8.64;75.61
50632;BME280;49583;45.590;-122.498;2023-02-21T07:21:37;100747.33;;;8.65;75.95
50632;BME280;49583;45.590;-122.498;2023-02-21T07:23:50;100750.63;;;8.66;75.79
50632;BME280;49583;45.590;-122.498;2023-02-21T07:26:05;100744.91;;;8.65;76.01
50632;BME280;49583;45.590;-122.498;2023-02-21T07:28:19;100751.86;;;8.65;76.15
50632;BME280;49583;45.590;-122.498;2023-02-21T07:30:33;100744.89;;;8.64;76.14
50632;BME280;49583;45.590;-122.498;2023-02-21T07:32:47;100749.42;;;8.64;76.08
50632;BME280;49583;45.590;-122.498;2023-02-21T07:35:00;100754.09;;;8.64;76.15
50632;BME280;49583;45.590;-122.498;2023-02-21T07:37:14;100749.35;;;8.62;76.36
50632;BME280;49583;45.590;-122.498;2023-02-21T07:39:28;100750.13;;;8.60;76.37
50632;BME280;49583;45.590;-122.498;2023-02-21T07:41:43;100744.39;;;8.58;76.40
50632;BME280;49583;45.590;-122.498;2023-02-21T07:44:04;100745.55;;;8.55;76.90
50632;BME280;49583;45.590;-122.498;2023-02-21T07:46:18;100743.28;;;8.50;77.13
50632;BME280;49583;45.590;-122.498;2023-02-21T07:48:32;100760.65;;;8.44;77.48
50632;BME280;49583;45.590;-122.498;2023-02-21T07:50:46;100768.02;;;8.41;77.70
50632;BME280;49583;45.590;-122.498;2023-02-21T07:53:00;100759.73;;;8.38;77.49
50632;BME280;49583;45.590;-122.498;2023-02-21T07:55:14;100768.11;;;8.36;78.08
50632;BME280;49583;45.590;-122.498;2023-02-21T07:57:28;100766.01;;;8.34;77.90
50632;BME280;49583;45.590;-122.498;2023-02-21T07:59:42;100757.05;;;8.31;78.08
50632;BME280;49583;45.590;-122.498;2023-02-21T08:01:56;100768.65;;;8.30;77.82
50632;BME280;49583;45.590;-122.498;2023-02-21T08:04:10;100762.04;;;8.27;78.41
50632;BME280;49583;45.590;-122.498;2023-02-21T08:06:24;100771.88;;;8.28;78.40
50632;BME280;49583;45.590;-122.498;2023-02-21T08:08:37;100775.26;;;8.29;78.47
50632;BME280;49583;45.590;-122.498;2023-02-21T08:10:52;100764.16;;;8.31;78.48
50632;BME280;49583;45.590;-122.498;2023-02-21T08:13:06;100762.98;;;8.32;78.43
50632;BME280;49583;45.590;-122.498;2023-02-21T08:15:20;100765.89;;;8.32;78.30
50632;BME280;49583;45.590;-122.498;2023-02-21T08:17:34;100759.24;;;8.34;78.53
50632;BME280;49583;45.590;-122.498;2023-02-21T08:19:46;100760.19;;;8.34;78.65
50632;BME280;49583;45.590;-122.498;2023-02-21T08:21:59;100763.65;;;8.35;78.27
50632;BME280;49583;45.590;-122.498;2023-02-21T08:24:13;100759.23;;;8.36;78.50
50632;BME280;49583;45.590;-122.498;2023-02-21T08:26:26;100753.67;;;8.38;78.32
50632;BME280;49583;45.590;-122.498;2023-02-21T08:28:40;100759.04;;;8.40;78.46
50632;BME280;49583;45.590;-122.498;2023-02-21T08:30:53;100752.98;;;8.41;78.41
50632;BME280;49583;45.590;-122.498;2023-02-21T08:33:06;100768.73;;;8.43;78.50
50632;BME280;49583;45.590;-122.498;2023-02-21T08:35:20;100778.45;;;8.42;78.00
50632;BME280;49583;45.590;-122.498;2023-02-21T08:37:34;100790.39;;;8.42;78.15
50632;BME280;49583;45.590;-122.498;2023-02-21T08:39:54;100793.86;;;8.42;77.92
50632;BME280;49583;45.590;-122.498;2023-02-21T08:42:08;100801.64;;;8.41;77.84
50632;BME280;49583;45.590;-122.498;2023-02-21T08:44:24;100798.17;;;8.38;77.95
50632;BME280;49583;45.590;-122.498;2023-02-21T08:46:38;100800.91;;;8.35;77.52
50632;BME280;49583;45.590;-122.498;2023-02-21T08:48:51;100807.00;;;8.32;77.11
50632;BME280;49583;45.590;-122.498;2023-02-21T08:51:05;100823.55;;;8.28;77.01
50632;BME280;49583;45.590;-122.498;2023-02-21T08:53:19;100819.77;;;8.24;76.91
50632;BME280;49583;45.590;-122.498;2023-02-21T08:55:33;100823.55;;;8.21;76.59
50632;BME280;49583;45.590;-122.498;2023-02-21T08:57:46;100821.80;;;8.18;76.43
50632;BME280;49583;45.590;-122.498;2023-02-21T09:00:00;100817.55;;;8.14;76.30
50632;BME280;49583;45.590;-122.498;2023-02-21T09:02:16;100815.20;;;8.08;76.15
50632;BME280;49583;45.590;-122.498;2023-02-21T09:04:30;100812.64;;;8.02;75.64
50632;BME280;49583;45.590;-122.498;2023-02-21T09:06:43;100808.42;;;7.95;75.54
50632;BME280;49583;45.590;-122.498;2023-02-21T09:08:56;100809.55;;;7.91;75.56
50632;BME280;49583;45.590;-122.498;2023-02-21T09:11:10;100810.16;;;7.89;75.21
50632;BME280;49583;45.590;-122.498;2023-02-21T09:13:24;100808.22;;;7.85;74.94
50632;BME280;49583;45.590;-122.498;2023-02-21T09:15:39;100811.90;;;7.80;74.81
50632;BME280;49583;45.590;-122.498;2023-02-21T09:17:54;100814.94;;;7.76;74.65
50632;BME280;49583;45.590;-122.498;2023-02-21T09:20:12;100809.27;;;7.71;74.45
50632;BME280;49583;45.590;-122.498;2023-02-21T09:22:28;100806.80;;;7.65;74.20
50632;BME280;49583;45.590;-122.498;2023-02-21T09:24:43;100811.22;;;7.61;74.06
50632;BME280;49583;45.590;-122.498;2023-02-21T09:26:57;100813.77;;;7.58;74.07
50632;BME280;49583;45.590;-122.498;2023-02-21T09:29:12;100810.64;;;7.55;73.89
50632;BME280;49583;45.590;-122.498;2023-02-21T09:31:26;100806.61;;;7.54;73.87
50632;BME280;49583;45.590;-122.498;2023-02-21T09:33:41;100801.55;;;7.52;73.93
50632;BME280;49583;45.590;-122.498;2023-02-21T09:35:54;100802.46;;;7.52;73.90
50632;BME280;49583;45.590;-122.498;2023-02-21T09:38:07;100798.45;;;7.50;73.39
50632;BME280;49583;45.590;-122.498;2023-02-21T09:40:32;100800.38;;;7.45;73.25
50632;BME280;49583;45.590;-122.498;2023-02-21T09:42:47;100797.80;;;7.41;73.04
50632;BME280;49583;45.590;-122.498;2023-02-21T09:45:02;100798.70;;;7.35;72.73
50632;BME280;49583;45.590;-122.498;2023-02-21T09:47:20;100810.38;;;7.31;72.68
50632;BME280;49583;45.590;-122.498;2023-02-21T09:49:39;100807.92;;;7.27;72.45
50632;BME280;49583;45.590;-122.498;2023-02-21T09:51:54;100809.52;;;7.24;72.48
50632;BME280;49583;45.590;-122.498;2023-02-21T09:54:16;100821.82;;;7.23;72.38
50632;BME280;49583;45.590;-122.498;2023-02-21T09:56:33;100829.92;;;7.23;72.45
50632;BME280;49583;45.590;-122.498;2023-02-21T09:58:48;100828.63;;;7.21;72.39
50632;BME280;49583;45.590;-122.498;2023-02-21T10:01:07;100831.71;;;7.21;72.36
50632;BME280;49583;45.590;-122.498;2023-02-21T10:03:45;100831.20;;;7.19;72.10
50632;BME280;49583;45.590;-122.498;2023-02-21T10:06:06;100815.09;;;7.17;72.11
50632;BME280;49583;45.590;-122.498;2023-02-21T10:08:25;100816.15;;;7.16;71.96
50632;BME280;49583;45.590;-122.498;2023-02-21T10:10:48;100818.16;;;7.16;71.95
50632;BME280;49583;45.590;-122.498;2023-02-21T10:13:13;100823.77;;;7.16;71.83
50632;BME280;49583;45.590;-122.498;2023-02-21T10:15:44;100820.70;;;7.15;71.70
50632;BME280;49583;45.590;-122.498;2023-02-21T10:18:02;100819.48;;;7.16;71.76
50632;BME280;49583;45.590;-122.498;2023-02-21T10:20:25;100814.80;;;7.16;71.64
50632;BME280;49583;45.590;-122.498;2023-02-21T10:22:42;100818.30;;;7.15;71.59
50632;BME280;49583;45.590;-122.498;2023-02-21T10:24:58;100805.73;;;7.15;71.54
50632;BME280;49583;45.590;-122.498;2023-02-21T10:27:16;100803.11;;;7.14;71.50
50632;BME280;49583;45.590;-122.498;2023-02-21T10:29:42;100798.22;;;7.11;71.39
50632;BME280;49583;45.590;-122.498;2023-02-21T10:31:58;100791.39;;;7.07;71.07
50632;BME280;49583;45.590;-122.498;2023-02-21T10:34:21;100787.35;;;7.06;71.03
50632;BME280;49583;45.590;-122.498;2023-02-21T10:36:36;100785.80;;;7.07;71.02
50632;BME280;49583;45.590;-122.498;2023-02-21T10:38:57;100780.73;;;7.06;70.94
50632;BME280;49583;45.590;-122.498;2023-02-21T10:41:14;100777.23;;;7.04;70.95
50632;BME280;49583;45.590;-122.498;2023-02-21T10:43:33;100777.28;;;7.03;70.91
50632;BME280;49583;45.590;-122.498;2023-02-21T10:45:52;100771.84;;;7.01;70.81
50632;BME280;49583;45.590;-122.498;2023-02-21T10:48:09;100768.16;;;6.98;70.69
50632;BME280;49583;45.590;-122.498;2023-02-21T10:50:38;100768.50;;;6.94;70.37
50632;BME280;49583;45.590;-122.498;2023-02-21T10:52:52;100777.02;;;6.89;70.24
50632;BME280;49583;45.590;-122.498;2023-02-21T10:55:12;100777.59;;;6.86;70.22
50632;BME280;49583;45.590;-122.498;2023-02-21T10:57:43;100771.41;;;6.85;70.35
50632;BME280;49583;45.590;-122.498;2023-02-21T10:59:58;100767.04;;;6.83;70.32
50632;BME280;49583;45.590;-122.498;2023-02-21T11:04:46;100759.02;;;6.81;70.24
50632;BME280;49583;45.590;-122.498;2023-02-21T11:07:01;100757.71;;;6.77;70.18
50632;BME280;49583;45.590;-122.498;2023-02-21T11:09:42;100752.85;;;6.76;70.10
50632;BME280;49583;45.590;-122.498;2023-02-21T11:12:01;100743.16;;;6.74;70.13
50632;BME280;49583;45.590;-122.498;2023-02-21T11:14:26;100740.72;;;6.71;70.10
50632;BME280;49583;45.590;-122.498;2023-02-21T11:16:39;100741.82;;;6.69;70.06
50632;BME280;49583;45.590;-122.498;2023-02-21T11:19:05;100736.02;;;6.69;70.01
50632;BME280;49583;45.590;-122.498;2023-02-21T11:21:19;100740.57;;;6.68;69.96
50632;BME280;49583;45.590;-122.498;2023-02-21T11:23:32;100734.00;;;6.66;69.89
50632;BME280;49583;45.590;-122.498;2023-02-21T11:25:45;100731.62;;;6.65;69.72
50632;BME280;49583;45.590;-122.498;2023-02-21T11:28:16;100733.77;;;6.63;69.58
50632;BME280;49583;45.590;-122.498;2023-02-21T11:30:31;100730.86;;;6.62;69.67
50632;BME280;49583;45.590;-122.498;2023-02-21T11:32:51;100730.73;;;6.61;69.68
50632;BME280;49583;45.590;-122.498;2023-02-21T11:35:22;100728.42;;;6.59;69.58
50632;BME280;49583;45.590;-122.498;2023-02-21T11:37:39;100726.42;;;6.57;69.44
50632;BME280;49583;45.590;-122.498;2023-02-21T11:39:55;100724.31;;;6.56;69.64
50632;BME280;49583;45.590;-122.498;2023-02-21T11:42:26;100718.49;;;6.55;69.51
50632;BME280;49583;45.590;-122.498;2023-02-21T11:44:41;100713.90;;;6.52;69.28
50632;BME280;49583;45.590;-122.498;2023-02-21T11:47:00;100714.57;;;6.50;69.28
50632;BME280;49583;45.590;-122.498;2023-02-21T11:49:20;100719.51;;;6.49;69.26
50632;BME280;49583;45.590;-122.498;2023-02-21T11:51:40;100725.11;;;6.47;69.38
50632;BME280;49583;45.590;-122.498;2023-02-21T11:53:55;100725.82;;;6.45;69.25
50632;BME280;49583;45.590;-122.498;2023-02-21T11:56:18;100715.06;;;6.45;69.25